Perryville, AR (72126)

1:27 AM CST on February 06, 2016 (GMT -0600)
Petit Jean Mountain | | Change Station
CLOSE
Current Station
Personal Weather Station
Location: Morrilton, AR
Elevation: 1060 ft
Nearby Weather Stations

Elev 1060 ft 35.15 °N, 92.94 °W | Updated 1 minute ago

Partly Cloudy
Partly Cloudy
36.3 °F
Feels Like 36 °F
N
0.0
Wind Variable Wind from West

Today
High -- | Low -- °F
--% Chance of Precip.
Yesterday
High -- | Low -- °F
Precip. -- in
Pressure 30.33 in
Visibility 10.0 miles
Clouds Clear
Windchill 36 °F
Dew Point 17 °F
Humidity 45%
Rainfall 0.00 in
Snow Depth Not available.
7:06 AM 5:44 PM
Waning Crescent, 7% visible
METAR KRUE 060653Z AUTO 00000KT 10SM CLR 00/M06 A3033 RMK AO2 SLP270 T00001056
Pressure 30.33 in
Visibility 10.0 miles
Clouds Clear
Windchill 36 °F
Dew Point 17 °F
Humidity 45%
Rainfall 0.00 in
Snow Depth Not available.
7:06 AM 5:44 PM
Waning Crescent, 7% visible
METAR KRUE 060653Z AUTO 00000KT 10SM CLR 00/M06 A3033 RMK AO2 SLP270 T00001056

10-Day Weather Forecast

Almanac

Astronomy

Feb. 06, 2016 Rise Set
Actual Time
Civil Twilight
Nautical Twilight
Astronomical Twilight
Moon
Length of Visible Light
Length of Day
Tomorrow will be .
, % of the Moon is Illuminated

Today's Extremes

State Highs State Lows

Community

WunderPhotos

Upload Photos

1,890,933 photos uploaded!

WunderBlog® & News

Nearby

Air Quality

  Air Quality AQ Index Pollutant
Not available.

Snow Depth

Station Depth Elevation

Earthquake Activity

City Distance Mag. Time & Date
Minimum magnitude displayed is 2.5.

Coastal Water Temperatures

Place Temperature

Stations

Nearby Weather Stations

Station Location Temp. Windchill Dew Point Humidity Wind Precip. Elev Updated Type
                   

Watches & Warnings

There are currently no watches in effect.